sensor_id;sensor_type;location;lat;lon;timestamp;temperature;humidity
4584;DHT22;2304;47.606;12.186;2023-07-24T00:00:03;21.10;69.30
4584;DHT22;2304;47.606;12.186;2023-07-24T00:05:07;20.90;70.00
4584;DHT22;2304;47.606;12.186;2023-07-24T00:10:09;20.80;71.20
4584;DHT22;2304;47.606;12.186;2023-07-24T00:15:11;20.80;71.30
4584;DHT22;2304;47.606;12.186;2023-07-24T00:20:14;20.60;71.40
4584;DHT22;2304;47.606;12.186;2023-07-24T00:25:16;20.50;72.90
4584;DHT22;2304;47.606;12.186;2023-07-24T00:30:18;20.30;73.80
4584;DHT22;2304;47.606;12.186;2023-07-24T00:35:21;20.20;74.60
4584;DHT22;2304;47.606;12.186;2023-07-24T00:40:23;20.10;74.90
4584;DHT22;2304;47.606;12.186;2023-07-24T00:45:25;20.00;74.90
4584;DHT22;2304;47.606;12.186;2023-07-24T00:50:29;20.00;75.10
4584;DHT22;2304;47.606;12.186;2023-07-24T00:55:31;20.00;75.50
4584;DHT22;2304;47.606;12.186;2023-07-24T01:00:33;19.90;75.80
4584;DHT22;2304;47.606;12.186;2023-07-24T01:05:36;19.90;76.00
4584;DHT22;2304;47.606;12.186;2023-07-24T01:10:38;19.90;76.20
4584;DHT22;2304;47.606;12.186;2023-07-24T01:15:44;19.80;76.30
4584;DHT22;2304;47.606;12.186;2023-07-24T01:20:53;19.80;76.80
4584;DHT22;2304;47.606;12.186;2023-07-24T01:25:58;19.70;77.00
4584;DHT22;2304;47.606;12.186;2023-07-24T01:31:00;19.70;77.10
4584;DHT22;2304;47.606;12.186;2023-07-24T01:36:03;19.70;77.20
4584;DHT22;2304;47.606;12.186;2023-07-24T01:41:07;19.70;76.80
4584;DHT22;2304;47.606;12.186;2023-07-24T01:46:09;19.70;76.90
4584;DHT22;2304;47.606;12.186;2023-07-24T01:51:11;19.70;76.60
4584;DHT22;2304;47.606;12.186;2023-07-24T01:56:14;19.60;76.80
4584;DHT22;2304;47.606;12.186;2023-07-24T02:01:16;19.60;77.40
4584;DHT22;2304;47.606;12.186;2023-07-24T02:06:17;19.60;77.90
4584;DHT22;2304;47.606;12.186;2023-07-24T02:11:20;19.60;78.20
4584;DHT22;2304;47.606;12.186;2023-07-24T02:16:22;19.50;78.20
4584;DHT22;2304;47.606;12.186;2023-07-24T02:21:24;19.50;78.30
4584;DHT22;2304;47.606;12.186;2023-07-24T02:26:27;19.30;78.60
4584;DHT22;2304;47.606;12.186;2023-07-24T02:31:29;19.30;78.40
4584;DHT22;2304;47.606;12.186;2023-07-24T02:36:31;19.30;78.40
4584;DHT22;2304;47.606;12.186;2023-07-24T02:41:34;19.30;78.80
4584;DHT22;2304;47.606;12.186;2023-07-24T02:46:36;19.40;78.20
4584;DHT22;2304;47.606;12.186;2023-07-24T02:51:37;19.30;78.50
4584;DHT22;2304;47.606;12.186;2023-07-24T02:56:41;19.20;78.60
4584;DHT22;2304;47.606;12.186;2023-07-24T03:01:43;19.30;78.80
4584;DHT22;2304;47.606;12.186;2023-07-24T03:06:44;19.20;79.10
4584;DHT22;2304;47.606;12.186;2023-07-24T03:11:48;19.20;79.30
4584;DHT22;2304;47.606;12.186;2023-07-24T03:16:49;19.20;79.40
4584;DHT22;2304;47.606;12.186;2023-07-24T03:21:51;19.20;79.70
4584;DHT22;2304;47.606;12.186;2023-07-24T03:26:54;19.20;78.40
4584;DHT22;2304;47.606;12.186;2023-07-24T03:31:56;19.20;78.10
4584;DHT22;2304;47.606;12.186;2023-07-24T03:36:58;19.20;77.80
4584;DHT22;2304;47.606;12.186;2023-07-24T03:42:02;19.30;77.40
4584;DHT22;2304;47.606;12.186;2023-07-24T03:47:04;19.20;77.10
4584;DHT22;2304;47.606;12.186;2023-07-24T03:52:06;19.30;77.20
4584;DHT22;2304;47.606;12.186;2023-07-24T03:57:09;19.30;76.80
4584;DHT22;2304;47.606;12.186;2023-07-24T04:02:11;19.40;76.60
4584;DHT22;2304;47.606;12.186;2023-07-24T04:07:13;19.40;76.30
4584;DHT22;2304;47.606;12.186;2023-07-24T04:12:16;19.60;75.30
4584;DHT22;2304;47.606;12.186;2023-07-24T04:17:17;19.70;75.90
4584;DHT22;2304;47.606;12.186;2023-07-24T04:22:19;19.80;75.50
4584;DHT22;2304;47.606;12.186;2023-07-24T04:27:22;19.80;74.50
4584;DHT22;2304;47.606;12.186;2023-07-24T04:32:26;19.80;73.80
4584;DHT22;2304;47.606;12.186;2023-07-24T04:37:28;19.90;74.80
4584;DHT22;2304;47.606;12.186;2023-07-24T04:42:31;19.90;73.40
4584;DHT22;2304;47.606;12.186;2023-07-24T04:47:33;19.90;74.30
4584;DHT22;2304;47.606;12.186;2023-07-24T04:52:34;20.10;74.60
4584;DHT22;2304;47.606;12.186;2023-07-24T04:57:37;20.30;73.50
4584;DHT22;2304;47.606;12.186;2023-07-24T05:02:39;20.30;72.10
4584;DHT22;2304;47.606;12.186;2023-07-24T05:07:41;20.20;71.80
4584;DHT22;2304;47.606;12.186;2023-07-24T05:12:44;20.20;71.90
4584;DHT22;2304;47.606;12.186;2023-07-24T05:17:46;20.20;72.10
4584;DHT22;2304;47.606;12.186;2023-07-24T05:22:48;20.10;72.60
4584;DHT22;2304;47.606;12.186;2023-07-24T05:27:51;20.10;73.00
4584;DHT22;2304;47.606;12.186;2023-07-24T05:32:53;20.20;73.00
4584;DHT22;2304;47.606;12.186;2023-07-24T05:37:54;20.10;72.70
4584;DHT22;2304;47.606;12.186;2023-07-24T05:42:57;20.20;72.60
4584;DHT22;2304;47.606;12.186;2023-07-24T05:47:59;20.30;72.60
4584;DHT22;2304;47.606;12.186;2023-07-24T05:53:01;20.20;72.10
4584;DHT22;2304;47.606;12.186;2023-07-24T05:58:04;20.20;72.30
4584;DHT22;2304;47.606;12.186;2023-07-24T06:03:06;20.30;72.70
4584;DHT22;2304;47.606;12.186;2023-07-24T06:08:08;20.40;72.90
4584;DHT22;2304;47.606;12.186;2023-07-24T06:13:12;20.30;72.70
4584;DHT22;2304;47.606;12.186;2023-07-24T06:18:14;20.40;72.50
4584;DHT22;2304;47.606;12.186;2023-07-24T06:23:16;20.40;72.10
4584;DHT22;2304;47.606;12.186;2023-07-24T06:28:19;20.30;72.60
4584;DHT22;2304;47.606;12.186;2023-07-24T06:33:21;20.40;71.50
4584;DHT22;2304;47.606;12.186;2023-07-24T06:38:23;20.50;70.70
4584;DHT22;2304;47.606;12.186;2023-07-24T06:43:26;20.90;69.40
4584;DHT22;2304;47.606;12.186;2023-07-24T06:48:28;21.20;67.50
4584;DHT22;2304;47.606;12.186;2023-07-24T06:53:29;21.20;67.40
4584;DHT22;2304;47.606;12.186;2023-07-24T06:58:33;21.20;66.80
4584;DHT22;2304;47.606;12.186;2023-07-24T07:03:34;21.40;66.00
4584;DHT22;2304;47.606;12.186;2023-07-24T07:08:36;21.70;65.80
4584;DHT22;2304;47.606;12.186;2023-07-24T07:13:39;21.80;65.20
4584;DHT22;2304;47.606;12.186;2023-07-24T07:18:41;21.80;66.00
4584;DHT22;2304;47.606;12.186;2023-07-24T07:23:43;21.90;65.60
4584;DHT22;2304;47.606;12.186;2023-07-24T07:28:46;21.80;65.60
4584;DHT22;2304;47.606;12.186;2023-07-24T07:33:48;22.10;66.10
4584;DHT22;2304;47.606;12.186;2023-07-24T07:38:49;22.10;65.00
4584;DHT22;2304;47.606;12.186;2023-07-24T07:43:53;22.00;66.00
4584;DHT22;2304;47.606;12.186;2023-07-24T07:48:54;21.80;66.90
4584;DHT22;2304;47.606;12.186;2023-07-24T07:53:56;21.70;68.40
4584;DHT22;2304;47.606;12.186;2023-07-24T07:58:59;21.50;70.00
4584;DHT22;2304;47.606;12.186;2023-07-24T08:04:01;21.50;71.50
4584;DHT22;2304;47.606;12.186;2023-07-24T08:09:03;21.50;72.00
4584;DHT22;2304;47.606;12.186;2023-07-24T08:14:06;21.40;70.50
4584;DHT22;2304;47.606;12.186;2023-07-24T08:19:08;21.30;69.90
4584;DHT22;2304;47.606;12.186;2023-07-24T08:24:10;21.20;69.80
4584;DHT22;2304;47.606;12.186;2023-07-24T08:29:14;21.20;69.60
4584;DHT22;2304;47.606;12.186;2023-07-24T08:34:15;21.30;69.70
4584;DHT22;2304;47.606;12.186;2023-07-24T08:39:17;21.50;69.40
4584;DHT22;2304;47.606;12.186;2023-07-24T08:44:20;21.70;70.10
4584;DHT22;2304;47.606;12.186;2023-07-24T08:49:24;22.00;68.40
4584;DHT22;2304;47.606;12.186;2023-07-24T08:54:27;22.20;67.80
4584;DHT22;2304;47.606;12.186;2023-07-24T08:59:30;22.40;68.50
4584;DHT22;2304;47.606;12.186;2023-07-24T09:04:32;22.70;67.00
4584;DHT22;2304;47.606;12.186;2023-07-24T09:09:34;23.00;66.10
4584;DHT22;2304;47.606;12.186;2023-07-24T09:14:37;23.20;64.40
4584;DHT22;2304;47.606;12.186;2023-07-24T09:19:39;23.10;63.70
4584;DHT22;2304;47.606;12.186;2023-07-24T09:24:51;23.30;64.30
4584;DHT22;2304;47.606;12.186;2023-07-24T09:29:55;23.40;64.30
4584;DHT22;2304;47.606;12.186;2023-07-24T09:34:57;23.70;63.80
4584;DHT22;2304;47.606;12.186;2023-07-24T09:39:58;23.90;63.50
4584;DHT22;2304;47.606;12.186;2023-07-24T09:45:02;24.40;63.60
4584;DHT22;2304;47.606;12.186;2023-07-24T09:50:05;24.70;60.20
4584;DHT22;2304;47.606;12.186;2023-07-24T09:55:11;24.90;59.50
4584;DHT22;2304;47.606;12.186;2023-07-24T10:00:15;24.90;60.20
4584;DHT22;2304;47.606;12.186;2023-07-24T10:05:17;24.90;60.60
4584;DHT22;2304;47.606;12.186;2023-07-24T10:10:19;25.30;60.30
4584;DHT22;2304;47.606;12.186;2023-07-24T10:15:23;25.60;59.70
4584;DHT22;2304;47.606;12.186;2023-07-24T10:20:32;25.60;57.00
4584;DHT22;2304;47.606;12.186;2023-07-24T10:25:36;25.70;56.00
4584;DHT22;2304;47.606;12.186;2023-07-24T10:30:40;25.90;57.00
4584;DHT22;2304;47.606;12.186;2023-07-24T10:35:43;25.80;58.10
4584;DHT22;2304;47.606;12.186;2023-07-24T10:40:47;25.70;56.90
4584;DHT22;2304;47.606;12.186;2023-07-24T10:45:53;25.70;57.60
4584;DHT22;2304;47.606;12.186;2023-07-24T10:50:55;25.70;56.80
4584;DHT22;2304;47.606;12.186;2023-07-24T10:55:56;25.80;57.50
4584;DHT22;2304;47.606;12.186;2023-07-24T11:00:59;25.80;56.20
4584;DHT22;2304;47.606;12.186;2023-07-24T11:06:02;25.90;56.70
4584;DHT22;2304;47.606;12.186;2023-07-24T11:11:04;26.00;56.00
4584;DHT22;2304;47.606;12.186;2023-07-24T11:16:08;26.20;54.70
4584;DHT22;2304;47.606;12.186;2023-07-24T11:21:12;26.30;55.70
4584;DHT22;2304;47.606;12.186;2023-07-24T11:26:14;26.40;54.90
4584;DHT22;2304;47.606;12.186;2023-07-24T11:31:18;26.40;54.50
4584;DHT22;2304;47.606;12.186;2023-07-24T11:36:21;26.40;54.30
4584;DHT22;2304;47.606;12.186;2023-07-24T11:41:25;26.40;54.40
4584;DHT22;2304;47.606;12.186;2023-07-24T11:46:29;26.40;55.20
4584;DHT22;2304;47.606;12.186;2023-07-24T11:51:32;26.50;55.80
4584;DHT22;2304;47.606;12.186;2023-07-24T11:56:34;26.50;56.10
4584;DHT22;2304;47.606;12.186;2023-07-24T12:01:37;26.40;54.90
4584;DHT22;2304;47.606;12.186;2023-07-24T12:06:39;26.40;55.40
4584;DHT22;2304;47.606;12.186;2023-07-24T12:11:43;26.50;56.40
4584;DHT22;2304;47.606;12.186;2023-07-24T12:16:46;26.50;56.00
4584;DHT22;2304;47.606;12.186;2023-07-24T12:21:48;26.40;56.30
4584;DHT22;2304;47.606;12.186;2023-07-24T12:26:50;26.50;55.80
4584;DHT22;2304;47.606;12.186;2023-07-24T12:31:54;26.60;55.60
4584;DHT22;2304;47.606;12.186;2023-07-24T12:36:55;26.50;54.40
4584;DHT22;2304;47.606;12.186;2023-07-24T12:41:57;26.70;55.00
4584;DHT22;2304;47.606;12.186;2023-07-24T12:47:00;26.80;56.00
4584;DHT22;2304;47.606;12.186;2023-07-24T12:52:03;27.20;55.10
4584;DHT22;2304;47.606;12.186;2023-07-24T12:57:05;27.40;54.30
4584;DHT22;2304;47.606;12.186;2023-07-24T13:02:08;27.70;55.10
4584;DHT22;2304;47.606;12.186;2023-07-24T13:07:10;27.60;52.70
4584;DHT22;2304;47.606;12.186;2023-07-24T13:12:12;28.00;54.50
4584;DHT22;2304;47.606;12.186;2023-07-24T13:17:15;28.20;53.00
4584;DHT22;2304;47.606;12.186;2023-07-24T13:22:17;28.40;52.20
4584;DHT22;2304;47.606;12.186;2023-07-24T13:27:19;28.00;52.10
4584;DHT22;2304;47.606;12.186;2023-07-24T13:32:22;27.50;52.60
4584;DHT22;2304;47.606;12.186;2023-07-24T13:37:24;27.20;53.50
4584;DHT22;2304;47.606;12.186;2023-07-24T13:42:26;26.90;53.70
4584;DHT22;2304;47.606;12.186;2023-07-24T13:47:29;26.60;55.40
4584;DHT22;2304;47.606;12.186;2023-07-24T13:52:31;26.40;56.00
4584;DHT22;2304;47.606;12.186;2023-07-24T13:57:33;26.20;55.50
4584;DHT22;2304;47.606;12.186;2023-07-24T14:02:36;25.90;59.80
4584;DHT22;2304;47.606;12.186;2023-07-24T14:07:38;25.10;65.90
4584;DHT22;2304;47.606;12.186;2023-07-24T14:12:39;23.90;70.40
4584;DHT22;2304;47.606;12.186;2023-07-24T14:17:43;23.60;70.30
4584;DHT22;2304;47.606;12.186;2023-07-24T14:22:44;23.50;76.30
4584;DHT22;2304;47.606;12.186;2023-07-24T14:27:46;23.50;76.00
4584;DHT22;2304;47.606;12.186;2023-07-24T14:32:49;23.60;75.50
4584;DHT22;2304;47.606;12.186;2023-07-24T14:37:51;23.70;75.40
4584;DHT22;2304;47.606;12.186;2023-07-24T14:42:53;23.90;76.80
4584;DHT22;2304;47.606;12.186;2023-07-24T14:47:56;24.00;77.10
4584;DHT22;2304;47.606;12.186;2023-07-24T14:52:58;24.00;77.40
4584;DHT22;2304;47.606;12.186;2023-07-24T14:58:00;24.10;78.10
4584;DHT22;2304;47.606;12.186;2023-07-24T15:03:03;24.10;76.70
4584;DHT22;2304;47.606;12.186;2023-07-24T15:08:05;24.10;75.60
4584;DHT22;2304;47.606;12.186;2023-07-24T15:13:09;24.40;72.90
4584;DHT22;2304;47.606;12.186;2023-07-24T15:18:13;24.50;72.90
4584;DHT22;2304;47.606;12.186;2023-07-24T15:23:14;24.50;72.60
4584;DHT22;2304;47.606;12.186;2023-07-24T15:28:16;24.70;71.70
4584;DHT22;2304;47.606;12.186;2023-07-24T15:57:07;24.50;72.00
4584;DHT22;2304;47.606;12.186;2023-07-24T16:02:09;24.80;73.00
4584;DHT22;2304;47.606;12.186;2023-07-24T16:07:11;24.70;66.60
4584;DHT22;2304;47.606;12.186;2023-07-24T16:12:14;24.50;68.10
4584;DHT22;2304;47.606;12.186;2023-07-24T16:17:16;24.60;69.20
4584;DHT22;2304;47.606;12.186;2023-07-24T16:22:18;24.30;71.30
4584;DHT22;2304;47.606;12.186;2023-07-24T16:27:21;24.10;74.00
4584;DHT22;2304;47.606;12.186;2023-07-24T16:32:23;23.90;74.30
4584;DHT22;2304;47.606;12.186;2023-07-24T16:37:25;23.60;75.00
4584;DHT22;2304;47.606;12.186;2023-07-24T16:42:30;23.50;75.10
4584;DHT22;2304;47.606;12.186;2023-07-24T16:47:32;23.50;76.40
4584;DHT22;2304;47.606;12.186;2023-07-24T16:52:34;23.50;78.10
4584;DHT22;2304;47.606;12.186;2023-07-24T16:57:37;23.40;78.80
4584;DHT22;2304;47.606;12.186;2023-07-24T17:02:39;23.40;78.00
4584;DHT22;2304;47.606;12.186;2023-07-24T17:07:41;23.30;78.60
4584;DHT22;2304;47.606;12.186;2023-07-24T17:12:44;23.20;78.30
4584;DHT22;2304;47.606;12.186;2023-07-24T17:17:46;23.10;79.10
4584;DHT22;2304;47.606;12.186;2023-07-24T17:22:48;23.10;80.40
4584;DHT22;2304;47.606;12.186;2023-07-24T17:27:52;23.10;80.00
4584;DHT22;2304;47.606;12.186;2023-07-24T17:32:54;23.10;80.60
4584;DHT22;2304;47.606;12.186;2023-07-24T17:37:55;23.00;81.70
4584;DHT22;2304;47.606;12.186;2023-07-24T17:42:59;22.90;82.40
4584;DHT22;2304;47.606;12.186;2023-07-24T17:48:01;22.80;82.30
4584;DHT22;2304;47.606;12.186;2023-07-24T17:53:02;22.60;83.10
4584;DHT22;2304;47.606;12.186;2023-07-24T17:58:06;22.50;83.50
4584;DHT22;2304;47.606;12.186;2023-07-24T18:03:07;22.40;82.70
4584;DHT22;2304;47.606;12.186;2023-07-24T18:08:10;22.30;83.00
4584;DHT22;2304;47.606;12.186;2023-07-24T18:13:13;22.20;82.90
4584;DHT22;2304;47.606;12.186;2023-07-24T18:18:15;22.20;83.50
4584;DHT22;2304;47.606;12.186;2023-07-24T18:23:16;22.20;83.40
4584;DHT22;2304;47.606;12.186;2023-07-24T18:28:20;22.20;84.10
4584;DHT22;2304;47.606;12.186;2023-07-24T18:33:22;22.20;84.80
4584;DHT22;2304;47.606;12.186;2023-07-24T18:38:23;21.80;86.40
4584;DHT22;2304;47.606;12.186;2023-07-24T18:43:27;21.60;87.60
4584;DHT22;2304;47.606;12.186;2023-07-24T18:48:28;21.50;88.30
4584;DHT22;2304;47.606;12.186;2023-07-24T18:53:30;21.50;88.70
4584;DHT22;2304;47.606;12.186;2023-07-24T18:58:33;21.40;88.90
4584;DHT22;2304;47.606;12.186;2023-07-24T19:03:35;21.30;87.80
4584;DHT22;2304;47.606;12.186;2023-07-24T19:08:37;21.20;87.80
4584;DHT22;2304;47.606;12.186;2023-07-24T19:13:40;21.20;87.90
4584;DHT22;2304;47.606;12.186;2023-07-24T19:18:42;21.30;87.60
4584;DHT22;2304;47.606;12.186;2023-07-24T19:23:44;21.30;86.90
4584;DHT22;2304;47.606;12.186;2023-07-24T19:28:47;21.40;87.60
4584;DHT22;2304;47.606;12.186;2023-07-24T19:33:49;21.40;87.00
4584;DHT22;2304;47.606;12.186;2023-07-24T19:38:51;21.40;87.00
4584;DHT22;2304;47.606;12.186;2023-07-24T19:43:54;21.40;87.70
4584;DHT22;2304;47.606;12.186;2023-07-24T19:48:55;21.30;87.30
4584;DHT22;2304;47.606;12.186;2023-07-24T19:53:57;21.40;87.20
4584;DHT22;2304;47.606;12.186;2023-07-24T19:59:01;21.40;87.40
4584;DHT22;2304;47.606;12.186;2023-07-24T20:04:03;21.40;87.30
4584;DHT22;2304;47.606;12.186;2023-07-24T20:09:04;21.40;87.00
4584;DHT22;2304;47.606;12.186;2023-07-24T20:14:09;21.30;87.20
4584;DHT22;2304;47.606;12.186;2023-07-24T20:19:11;21.20;86.30
4584;DHT22;2304;47.606;12.186;2023-07-24T20:24:13;21.10;87.70
4584;DHT22;2304;47.606;12.186;2023-07-24T20:29:16;21.20;88.60
4584;DHT22;2304;47.606;12.186;2023-07-24T20:34:18;21.20;89.20
4584;DHT22;2304;47.606;12.186;2023-07-24T20:39:19;21.20;89.20
4584;DHT22;2304;47.606;12.186;2023-07-24T20:44:23;21.20;88.60
4584;DHT22;2304;47.606;12.186;2023-07-24T20:49:24;21.20;89.00
4584;DHT22;2304;47.606;12.186;2023-07-24T20:54:26;21.20;88.80
4584;DHT22;2304;47.606;12.186;2023-07-24T20:59:29;21.20;89.30
4584;DHT22;2304;47.606;12.186;2023-07-24T21:04:31;21.10;89.20
4584;DHT22;2304;47.606;12.186;2023-07-24T21:09:33;21.10;89.00
4584;DHT22;2304;47.606;12.186;2023-07-24T21:14:36;21.10;89.00
4584;DHT22;2304;47.606;12.186;2023-07-24T21:19:38;21.10;89.00
4584;DHT22;2304;47.606;12.186;2023-07-24T21:24:40;21.00;89.60
4584;DHT22;2304;47.606;12.186;2023-07-24T21:29:43;21.00;89.70
4584;DHT22;2304;47.606;12.186;2023-07-24T21:34:45;20.90;89.50
4584;DHT22;2304;47.606;12.186;2023-07-24T21:39:47;20.90;89.60
4584;DHT22;2304;47.606;12.186;2023-07-24T21:44:50;21.00;88.70
4584;DHT22;2304;47.606;12.186;2023-07-24T21:49:52;21.10;88.20
4584;DHT22;2304;47.606;12.186;2023-07-24T21:54:53;21.20;87.30
4584;DHT22;2304;47.606;12.186;2023-07-24T21:59:57;21.20;86.80
4584;DHT22;2304;47.606;12.186;2023-07-24T22:04:58;21.10;86.90
4584;DHT22;2304;47.606;12.186;2023-07-24T22:10:00;21.00;87.90
4584;DHT22;2304;47.606;12.186;2023-07-24T22:15:04;21.10;87.30
4584;DHT22;2304;47.606;12.186;2023-07-24T22:20:07;21.20;86.70
4584;DHT22;2304;47.606;12.186;2023-07-24T22:25:10;21.30;86.10
4584;DHT22;2304;47.606;12.186;2023-07-24T22:30:14;21.30;85.50
4584;DHT22;2304;47.606;12.186;2023-07-24T22:35:16;21.20;85.60
4584;DHT22;2304;47.606;12.186;2023-07-24T22:40:18;21.40;85.30
4584;DHT22;2304;47.606;12.186;2023-07-24T22:45:21;21.40;84.70
4584;DHT22;2304;47.606;12.186;2023-07-24T22:50:23;21.40;84.40
4584;DHT22;2304;47.606;12.186;2023-07-24T22:55:24;21.40;83.80
4584;DHT22;2304;47.606;12.186;2023-07-24T23:00:28;21.50;83.90
4584;DHT22;2304;47.606;12.186;2023-07-24T23:05:29;21.50;83.60
4584;DHT22;2304;47.606;12.186;2023-07-24T23:10:31;21.50;82.70
4584;DHT22;2304;47.606;12.186;2023-07-24T23:21:19;21.50;83.10
4584;DHT22;2304;47.606;12.186;2023-07-24T23:26:21;21.40;82.70
4584;DHT22;2304;47.606;12.186;2023-07-24T23:31:24;21.40;82.90
4584;DHT22;2304;47.606;12.186;2023-07-24T23:36:26;21.40;83.00
4584;DHT22;2304;47.606;12.186;2023-07-24T23:41:28;21.30;83.40
4584;DHT22;2304;47.606;12.186;2023-07-24T23:46:31;21.30;83.30
4584;DHT22;2304;47.606;12.186;2023-07-24T23:51:33;21.20;82.60
4584;DHT22;2304;47.606;12.186;2023-07-24T23:56:35;21.00;82.00
